createdAt,value
2023-08-02T00:01:29.587Z,99282.25
2023-08-02T00:04:09.823Z,99291.25
2023-08-02T00:06:37.797Z,99300.31
2023-08-02T00:09:04.563Z,99316.81
2023-08-02T00:11:31.317Z,99313.25
2023-08-02T00:13:57.999Z,99349.50
2023-08-02T00:16:24.844Z,99353.22
2023-08-02T00:18:51.632Z,99360.25
2023-08-02T00:21:18.307Z,99366.38
2023-08-02T00:23:45.058Z,99378.69
2023-08-02T00:26:12.018Z,99373.53
2023-08-02T00:28:38.655Z,99377.13
2023-08-02T00:31:05.370Z,99388.16
2023-08-02T00:33:32.076Z,99396.25
2023-08-02T00:35:59.195Z,99389.66
2023-08-02T00:38:25.970Z,99412.66
2023-08-02T00:40:52.634Z,99409.41
2023-08-02T00:43:19.996Z,99415.44
2023-08-02T00:45:46.946Z,99414.13
2023-08-02T00:48:13.866Z,99413.63
2023-08-02T00:50:40.591Z,99411.91
2023-08-02T00:53:07.261Z,99401.16
2023-08-02T00:55:34.955Z,99394.31
2023-08-02T00:58:01.692Z,99388.28
2023-08-02T01:00:29.212Z,99375.69
2023-08-02T01:02:56.245Z,99379.28
2023-08-02T01:05:27.157Z,99381.00
2023-08-02T01:07:59.486Z,99376.78
2023-08-02T01:10:55.709Z,99391.47
2023-08-02T01:13:23.090Z,99378.59
2023-08-02T01:15:49.902Z,99378.97
2023-08-02T01:18:16.916Z,99377.03
2023-08-02T01:20:43.697Z,99381.38
2023-08-02T01:23:10.385Z,99368.34
2023-08-02T01:25:37.365Z,99362.34
2023-08-02T01:28:06.822Z,99369.31
2023-08-02T01:30:39.588Z,99359.22
2023-08-02T01:33:07.054Z,99371.00
2023-08-02T01:35:34.357Z,99364.84
2023-08-02T01:38:01.054Z,99372.69
2023-08-02T01:40:27.794Z,99363.03
2023-08-02T01:42:54.438Z,99357.69
2023-08-02T01:45:21.242Z,99364.53
2023-08-02T01:47:49.028Z,99372.69
2023-08-02T01:50:15.834Z,99371.59
2023-08-02T01:52:43.397Z,99366.97
2023-08-02T01:55:10.382Z,99368.72
2023-08-02T01:57:37.038Z,99347.47
2023-08-02T02:00:04.269Z,99338.16
2023-08-02T02:02:31.073Z,99315.69
2023-08-02T02:04:57.813Z,99320.38
2023-08-02T02:07:24.983Z,99314.53
2023-08-02T02:09:51.816Z,99334.38
2023-08-02T02:12:18.597Z,99334.38
2023-08-02T02:14:45.402Z,99336.50
2023-08-02T02:17:12.088Z,99346.00
2023-08-02T02:19:39.099Z,99343.75
2023-08-02T02:22:05.919Z,99353.13
2023-08-02T02:24:32.681Z,99353.78
2023-08-02T02:26:59.488Z,99356.03
2023-08-02T02:29:26.237Z,99364.34
2023-08-02T02:31:52.972Z,99351.91
2023-08-02T02:34:19.675Z,99355.28
2023-08-02T02:36:47.344Z,99357.81
2023-08-02T02:39:13.996Z,99359.09
2023-08-02T02:41:40.690Z,99343.53
2023-08-02T02:44:07.439Z,99350.28
2023-08-02T02:46:34.210Z,99347.81
2023-08-02T02:49:00.965Z,99342.44
2023-08-02T02:51:27.804Z,99336.16
2023-08-02T02:53:54.431Z,99338.34
2023-08-02T02:56:21.274Z,99327.06
2023-08-02T02:58:48.121Z,99361.16
2023-08-02T03:01:15.040Z,99336.94
2023-08-02T03:03:41.790Z,99201.34
2023-08-02T03:06:08.529Z,99051.13
2023-08-02T03:08:35.392Z,98913.19
2023-08-02T03:11:02.153Z,98893.69
2023-08-02T03:13:28.831Z,98841.44
2023-08-02T03:15:55.482Z,98799.19
2023-08-02T03:18:22.158Z,98780.09
2023-08-02T03:20:48.869Z,98797.00
2023-08-02T03:23:15.616Z,98785.81
2023-08-02T03:25:42.307Z,98770.59
2023-08-02T03:28:08.972Z,98790.53
2023-08-02T03:30:35.744Z,98759.44
2023-08-02T03:33:02.503Z,98774.72
2023-08-02T03:35:29.178Z,98780.81
2023-08-02T03:37:55.781Z,98789.28
2023-08-02T03:40:22.428Z,98783.81
2023-08-02T03:42:49.192Z,98777.03
2023-08-02T03:45:15.868Z,98764.47
2023-08-02T03:47:42.607Z,98760.59
2023-08-02T03:50:09.646Z,98771.00
2023-08-02T03:52:36.361Z,98766.75
2023-08-02T03:55:03.234Z,98740.19
2023-08-02T03:57:30.013Z,98775.25
2023-08-02T03:59:56.787Z,98763.91
2023-08-02T04:02:23.542Z,98759.47
2023-08-02T04:04:50.261Z,98709.97
2023-08-02T04:07:17.004Z,98648.28
2023-08-02T04:09:43.817Z,98632.38
2023-08-02T04:12:10.482Z,98633.41
2023-08-02T04:14:37.108Z,98646.91
2023-08-02T04:17:04.077Z,98685.34
2023-08-02T04:19:30.818Z,98711.09
2023-08-02T04:21:57.488Z,98719.63
2023-08-02T04:24:24.703Z,98682.94
2023-08-02T04:26:51.401Z,98640.47
2023-08-02T04:29:18.180Z,98688.28
2023-08-02T04:31:44.963Z,98728.13
2023-08-02T04:34:11.763Z,98689.03
2023-08-02T04:36:38.724Z,98692.03
2023-08-02T04:39:08.004Z,98747.28
2023-08-02T04:41:35.501Z,98756.63
2023-08-02T04:44:02.209Z,98766.44
2023-08-02T04:46:29.112Z,98757.03
2023-08-02T04:48:55.990Z,98762.72
2023-08-02T04:51:22.838Z,98781.28
2023-08-02T04:53:49.611Z,98760.50
2023-08-02T04:56:16.901Z,98775.44
2023-08-02T04:58:43.841Z,98761.69
2023-08-02T05:01:10.777Z,98738.50
2023-08-02T05:03:37.538Z,98715.56
2023-08-02T05:06:07.193Z,98740.59
2023-08-02T05:08:37.060Z,98710.94
2023-08-02T05:11:07.669Z,98697.44
2023-08-02T05:13:34.778Z,98667.88
2023-08-02T05:16:01.731Z,98670.63
2023-08-02T05:18:28.529Z,98644.13
2023-08-02T05:20:55.312Z,98685.09
2023-08-02T05:23:22.186Z,98734.59
2023-08-02T05:25:48.952Z,98761.69
2023-08-02T05:28:15.744Z,98713.47
2023-08-02T05:30:42.426Z,98639.09
2023-08-02T05:33:09.230Z,98604.81
2023-08-02T05:35:35.982Z,98646.50
2023-08-02T05:38:03.296Z,98681.66
2023-08-02T05:40:30.060Z,98669.19
2023-08-02T05:42:58.080Z,98650.97
2023-08-02T05:45:25.401Z,98668.31
2023-08-02T05:47:52.344Z,98658.81
2023-08-02T05:50:19.253Z,98615.09
2023-08-02T05:52:45.985Z,98658.59
2023-08-02T05:55:13.544Z,98662.41
2023-08-02T05:57:40.401Z,98601.16
2023-08-02T06:00:08.800Z,98640.97
2023-08-02T06:02:36.158Z,98683.47
2023-08-02T06:05:03.008Z,98633.84
2023-08-02T06:07:29.651Z,98671.50
2023-08-02T06:09:56.316Z,98647.03
2023-08-02T06:12:23.296Z,98628.81
2023-08-02T06:14:50.035Z,98737.59
2023-08-02T06:17:16.702Z,98736.19
2023-08-02T06:19:43.568Z,98746.41
2023-08-02T06:22:10.298Z,98725.38
2023-08-02T06:24:37.230Z,98700.25
2023-08-02T06:27:06.610Z,98729.53
2023-08-02T06:29:33.340Z,98763.63
2023-08-02T06:32:00.121Z,98797.44
2023-08-02T06:34:26.800Z,98762.53
2023-08-02T06:36:53.438Z,98764.88
2023-08-02T06:39:20.107Z,98807.56
2023-08-02T06:41:47.110Z,98826.97
2023-08-02T06:44:14.874Z,98801.53
2023-08-02T06:46:42.334Z,98858.03
2023-08-02T06:49:09.147Z,98916.50
2023-08-02T06:51:35.935Z,98905.88
2023-08-02T06:54:02.648Z,98972.91
2023-08-02T06:56:29.451Z,98922.84
2023-08-02T06:58:56.257Z,98997.44
2023-08-02T07:01:24.349Z,98949.50
2023-08-02T07:03:51.519Z,99065.53
2023-08-02T07:06:20.241Z,98947.97
2023-08-02T07:08:47.542Z,99032.28
2023-08-02T07:11:26.054Z,99058.53
2023-08-02T07:13:57.325Z,99051.16
2023-08-02T07:16:24.046Z,99067.41
2023-08-02T07:18:50.747Z,99048.06
2023-08-02T07:21:17.479Z,99050.19
2023-08-02T07:23:44.257Z,99042.88
2023-08-02T07:26:11.099Z,99038.53
2023-08-02T07:28:37.765Z,98938.66
2023-08-02T07:31:09.097Z,98891.50
2023-08-02T07:33:36.046Z,98961.16
2023-08-02T07:36:03.242Z,99022.72
2023-08-02T07:38:30.157Z,99036.63
2023-08-02T07:40:56.830Z,99061.66
2023-08-02T07:43:23.527Z,99033.53
2023-08-02T07:45:50.179Z,99014.75
2023-08-02T07:48:16.911Z,99022.78
2023-08-02T07:50:43.634Z,99029.16
2023-08-02T07:53:10.343Z,99023.94
2023-08-02T07:55:37.204Z,99015.22
2023-08-02T07:58:03.839Z,98841.31
2023-08-02T08:00:30.502Z,98895.06
2023-08-02T08:02:57.196Z,98940.47
2023-08-02T08:05:23.901Z,98947.63
2023-08-02T08:07:50.517Z,98998.47
2023-08-02T08:10:17.256Z,98999.31
2023-08-02T08:12:44.151Z,99013.19
2023-08-02T08:15:10.857Z,99046.66
2023-08-02T08:17:37.751Z,99036.50
2023-08-02T08:20:06.635Z,99021.63
2023-08-02T08:22:33.577Z,99064.13
2023-08-02T08:25:00.421Z,99072.78
2023-08-02T08:27:27.121Z,99050.91
2023-08-02T08:29:53.819Z,99053.69
2023-08-02T08:32:21.541Z,98890.63
2023-08-02T08:34:48.405Z,98933.34
2023-08-02T08:37:15.101Z,98993.72
2023-08-02T08:39:41.809Z,98995.34
2023-08-02T08:42:09.320Z,98938.53
2023-08-02T08:44:39.630Z,98856.81
2023-08-02T08:47:09.809Z,98866.53
2023-08-02T08:49:36.516Z,98875.03
2023-08-02T08:52:05.559Z,98826.81
2023-08-02T08:54:33.345Z,98757.16
2023-08-02T08:57:00.684Z,98799.44
2023-08-02T08:59:27.462Z,98778.47
2023-08-02T09:01:54.412Z,98796.06
2023-08-02T09:04:21.097Z,98866.06
2023-08-02T09:06:47.804Z,98910.09
2023-08-02T09:09:15.891Z,98858.03
2023-08-02T09:11:43.810Z,98747.22
2023-08-02T09:14:12.266Z,98715.41
2023-08-02T09:16:58.980Z,98701.47
2023-08-02T09:19:31.192Z,98643.47
2023-08-02T09:22:17.350Z,98618.75
2023-08-02T09:24:45.510Z,98620.00
2023-08-02T09:27:15.343Z,98593.25
2023-08-02T09:29:50.050Z,98575.03
2023-08-02T09:32:18.340Z,98598.97
2023-08-02T09:34:47.356Z,98597.22
2023-08-02T09:37:15.448Z,98621.28
2023-08-02T09:39:52.228Z,98580.03
2023-08-02T09:42:23.323Z,98563.91
2023-08-02T09:45:00.324Z,98556.81
2023-08-02T09:47:28.420Z,98551.38
2023-08-02T09:50:05.067Z,98611.81
2023-08-02T09:52:32.016Z,98619.09
2023-08-02T09:54:58.761Z,98630.88
2023-08-02T09:57:29.807Z,98634.16
2023-08-02T10:00:07.994Z,98589.44
2023-08-02T10:02:38.754Z,98591.72
2023-08-02T10:05:08.534Z,98587.25
2023-08-02T10:07:42.903Z,98545.59
2023-08-02T10:10:23.610Z,98608.03
2023-08-02T10:12:55.833Z,98530.72
2023-08-02T10:15:23.609Z,98508.75
2023-08-02T10:17:50.599Z,98579.56
2023-08-02T10:20:18.376Z,98505.34
2023-08-02T10:22:45.567Z,98504.81
2023-08-02T10:25:14.925Z,98507.06
2023-08-02T10:27:42.410Z,98499.97
2023-08-02T10:30:10.131Z,98487.56
2023-08-02T10:32:37.056Z,98517.13
2023-08-02T10:35:04.183Z,98509.44
2023-08-02T10:37:53.750Z,98511.00
2023-08-02T10:40:22.855Z,98530.44
2023-08-02T10:43:06.840Z,98501.25
2023-08-02T10:45:34.455Z,98495.72
2023-08-02T10:48:23.181Z,98582.91
2023-08-02T10:50:50.365Z,98533.63
2023-08-02T10:53:17.142Z,98485.31
2023-08-02T10:56:04.263Z,98481.59
2023-08-02T10:58:53.489Z,98488.81
2023-08-02T11:01:21.170Z,98504.22
2023-08-02T11:03:48.257Z,98458.91
2023-08-02T11:06:24.843Z,98443.56
2023-08-02T11:08:51.624Z,98451.38
2023-08-02T11:11:28.924Z,98476.97
2023-08-02T11:13:55.684Z,98442.66
2023-08-02T11:16:23.450Z,98423.81
2023-08-02T11:18:51.121Z,98427.03
2023-08-02T11:21:18.074Z,98441.03
2023-08-02T11:26:19.156Z,98437.22
2023-08-02T11:28:51.124Z,98474.47
2023-08-02T11:31:18.327Z,98461.19
2023-08-02T11:33:45.595Z,98451.06
2023-08-02T11:36:12.576Z,98424.44
2023-08-02T11:38:39.656Z,98444.09
2023-08-02T11:41:23.037Z,98495.25
2023-08-02T11:43:50.075Z,98451.38
2023-08-02T11:46:22.662Z,98445.00
2023-08-02T11:48:49.846Z,98403.88
2023-08-02T11:51:18.514Z,98404.69
2023-08-02T11:53:57.000Z,98428.25
2023-08-02T11:56:25.304Z,98405.22
2023-08-02T11:58:52.486Z,98406.25
2023-08-02T12:01:20.062Z,98399.44
2023-08-02T12:04:01.973Z,98433.69
2023-08-02T12:06:47.537Z,98427.25
2023-08-02T12:09:15.471Z,98419.91
2023-08-02T12:11:43.224Z,98467.06
2023-08-02T12:14:09.892Z,98453.41
2023-08-02T12:16:43.978Z,98486.22
2023-08-02T12:19:11.359Z,98464.19
2023-08-02T12:21:40.929Z,98488.06
2023-08-02T12:24:14.896Z,98482.22
2023-08-02T12:26:41.916Z,98449.66
2023-08-02T12:29:08.853Z,98423.63
2023-08-02T12:31:43.225Z,98408.34
2023-08-02T12:34:10.700Z,98387.63
2023-08-02T12:36:38.129Z,98404.38
2023-08-02T12:39:05.522Z,98384.84
2023-08-02T12:41:32.360Z,98381.63
2023-08-02T12:44:02.484Z,98383.75
2023-08-02T12:46:31.313Z,98409.19
2023-08-02T12:48:58.194Z,98411.34
2023-08-02T12:51:25.311Z,98413.44
2023-08-02T12:53:52.105Z,98392.13
2023-08-02T12:56:18.762Z,98382.97
2023-08-02T12:58:45.455Z,98389.41
2023-08-02T13:01:12.237Z,98392.06
2023-08-02T13:03:39.025Z,98387.84
2023-08-02T13:06:05.760Z,98423.41
2023-08-02T13:08:32.489Z,98435.88
2023-08-02T13:10:59.223Z,98406.22
2023-08-02T13:13:25.931Z,98409.06
2023-08-02T13:15:53.073Z,98372.97
2023-08-02T13:18:19.864Z,98354.25
2023-08-02T13:20:46.649Z,98370.84
2023-08-02T13:23:13.309Z,98378.59
2023-08-02T13:25:40.124Z,98345.50
2023-08-02T13:28:07.985Z,98389.94
2023-08-02T13:30:35.113Z,98450.09
2023-08-02T13:33:02.059Z,98382.69
2023-08-02T13:35:29.198Z,98376.44
2023-08-02T13:37:56.006Z,98397.81
2023-08-02T13:40:22.682Z,98462.13
2023-08-02T13:42:49.321Z,98375.25
2023-08-02T13:45:16.088Z,98365.31
2023-08-02T13:47:42.863Z,98352.72
2023-08-02T13:50:10.017Z,98390.56
2023-08-02T13:52:36.651Z,98383.25
2023-08-02T13:55:03.766Z,98369.03
2023-08-02T13:57:30.493Z,98376.69
2023-08-02T13:59:57.122Z,98363.22
2023-08-02T14:02:23.774Z,98376.56
2023-08-02T14:04:50.857Z,98368.69
2023-08-02T14:07:17.784Z,98371.81
2023-08-02T14:09:44.452Z,98425.06
2023-08-02T14:12:11.328Z,98534.38
2023-08-02T14:14:39.266Z,98668.97
2023-08-02T14:17:06.408Z,98730.44
2023-08-02T14:19:33.238Z,98746.63
2023-08-02T14:22:00.043Z,98780.09
2023-08-02T14:24:27.320Z,98815.34
2023-08-02T14:26:53.989Z,98720.63
2023-08-02T14:29:20.706Z,98507.63
2023-08-02T14:31:47.320Z,98485.44
2023-08-02T14:34:14.024Z,98506.16
2023-08-02T14:36:41.028Z,98473.16
2023-08-02T14:39:07.899Z,98469.56
2023-08-02T14:41:34.580Z,98533.38
2023-08-02T14:44:01.405Z,98630.94
2023-08-02T14:46:28.161Z,98721.78
2023-08-02T14:48:54.882Z,98765.84
2023-08-02T14:51:21.610Z,98888.84
2023-08-02T14:53:52.263Z,98930.69
2023-08-02T14:56:21.369Z,98917.69
2023-08-02T14:58:48.259Z,98901.81
2023-08-02T15:01:14.982Z,98871.53
2023-08-02T15:03:41.717Z,98839.25
2023-08-02T15:06:08.510Z,99026.50
2023-08-02T15:08:35.419Z,99230.22
2023-08-02T15:11:02.062Z,99078.38
2023-08-02T15:13:28.805Z,98960.84
2023-08-02T15:15:55.492Z,98932.66
2023-08-02T15:18:22.204Z,98854.22
2023-08-02T15:20:49.015Z,98798.75
2023-08-02T15:23:15.690Z,98754.72
2023-08-02T15:25:42.366Z,98761.53
2023-08-02T15:28:09.058Z,98800.84
2023-08-02T15:30:35.772Z,98786.88
2023-08-02T15:33:02.437Z,98774.25
2023-08-02T15:35:29.373Z,98726.94
2023-08-02T15:37:56.052Z,98713.06
2023-08-02T15:40:23.249Z,98704.91
2023-08-02T15:42:50.020Z,98685.44
2023-08-02T15:45:16.863Z,98705.25
2023-08-02T15:47:43.631Z,98691.59
2023-08-02T15:50:10.681Z,98724.09
2023-08-02T15:52:37.347Z,98742.22
2023-08-02T15:55:04.275Z,98775.25
2023-08-02T15:57:31.103Z,98758.75
2023-08-02T15:59:57.882Z,98760.25
2023-08-02T16:02:24.620Z,98772.63
2023-08-02T16:04:51.501Z,98758.06
2023-08-02T16:07:19.698Z,98743.25
2023-08-02T16:09:46.458Z,98767.59
2023-08-02T16:12:13.138Z,98764.44
2023-08-02T16:14:39.904Z,98760.41
2023-08-02T16:17:06.742Z,98773.25
2023-08-02T16:19:33.635Z,98798.28
2023-08-02T16:22:00.380Z,98762.56
2023-08-02T16:24:27.052Z,98796.56
2023-08-02T16:26:53.702Z,98804.91
2023-08-02T16:29:20.440Z,98806.91
2023-08-02T16:31:47.145Z,98811.56
2023-08-02T16:34:13.843Z,98797.41
2023-08-02T16:36:40.526Z,98784.97
2023-08-02T16:39:07.309Z,98788.72
2023-08-02T16:41:34.009Z,98889.47
2023-08-02T16:44:00.652Z,98886.84
2023-08-02T16:46:27.799Z,98866.38
2023-08-02T16:48:54.798Z,98792.38
2023-08-02T16:51:22.920Z,98788.72
2023-08-02T16:53:49.604Z,98782.03
2023-08-02T16:56:16.253Z,98823.88
2023-08-02T16:58:42.928Z,98869.31
2023-08-02T17:01:09.949Z,98890.47
2023-08-02T17:03:36.682Z,98903.81
2023-08-02T17:06:03.481Z,98947.53
2023-08-02T17:08:30.345Z,99061.41
2023-08-02T17:10:57.065Z,99158.03
2023-08-02T17:13:23.833Z,99125.50
2023-08-02T17:15:50.480Z,99100.41
2023-08-02T17:18:17.256Z,99093.00
2023-08-02T17:20:44.060Z,99089.22
2023-08-02T17:23:10.860Z,99066.59
2023-08-02T17:25:37.617Z,99098.53
2023-08-02T17:28:04.466Z,99193.69
2023-08-02T17:30:32.359Z,99326.28
2023-08-02T17:32:59.094Z,99414.75
2023-08-02T17:35:25.742Z,99475.13
2023-08-02T17:37:54.520Z,99519.97
2023-08-02T17:40:21.678Z,99515.66
2023-08-02T17:42:49.150Z,99501.75
2023-08-02T17:45:16.512Z,99433.19
2023-08-02T17:47:43.366Z,99399.59
2023-08-02T17:50:10.449Z,99388.53
2023-08-02T17:52:37.148Z,99398.44
2023-08-02T17:55:04.117Z,99418.78
2023-08-02T17:57:30.823Z,99466.28
2023-08-02T17:59:58.613Z,99450.47
2023-08-02T18:02:25.500Z,99410.53
2023-08-02T18:04:55.613Z,99378.31
2023-08-02T18:07:22.396Z,99395.81
2023-08-02T18:09:49.166Z,99386.97
2023-08-02T18:12:15.855Z,99399.31
2023-08-02T18:14:42.579Z,99409.81
2023-08-02T18:17:09.292Z,99415.97
2023-08-02T18:19:36.724Z,99411.06
2023-08-02T18:22:03.483Z,99403.91
2023-08-02T18:24:37.031Z,99389.22
2023-08-02T18:27:06.029Z,99378.84
2023-08-02T18:29:32.722Z,99372.69
2023-08-02T18:31:59.580Z,99354.31
2023-08-02T18:34:26.428Z,99358.38
2023-08-02T18:36:53.119Z,99376.59
2023-08-02T18:39:22.651Z,99357.00
2023-08-02T18:41:49.436Z,99360.50
2023-08-02T18:44:16.248Z,99353.47
2023-08-02T18:46:42.910Z,99387.13
2023-08-02T18:49:09.680Z,99415.72
2023-08-02T18:51:36.435Z,99409.84
2023-08-02T18:54:03.170Z,99403.66
2023-08-02T18:56:29.836Z,99404.50
2023-08-02T18:58:57.058Z,99389.22
2023-08-02T19:01:23.877Z,99371.84
2023-08-02T19:03:52.131Z,99359.25
2023-08-02T19:06:19.079Z,99363.84
2023-08-02T19:08:47.616Z,99352.06
2023-08-02T19:11:25.021Z,99355.16
2023-08-02T19:13:56.071Z,99376.00
2023-08-02T19:16:23.476Z,99388.75
2023-08-02T19:18:50.317Z,99374.03
2023-08-02T19:21:17.081Z,99370.69
2023-08-02T19:23:45.087Z,99360.06
2023-08-02T19:26:18.926Z,99364.66
2023-08-02T19:28:45.825Z,99379.22
2023-08-02T19:31:15.046Z,99381.47
2023-08-02T19:33:44.545Z,99381.31
2023-08-02T19:36:22.022Z,99370.94
2023-08-02T19:38:49.716Z,99356.38
2023-08-02T19:41:20.586Z,99366.06
2023-08-02T19:43:47.912Z,99333.84
2023-08-02T19:46:15.168Z,99320.53
2023-08-02T19:48:42.415Z,99315.63
2023-08-02T19:51:09.240Z,99350.19
2023-08-02T19:53:36.530Z,99360.97
2023-08-02T19:56:05.332Z,99351.56
2023-08-02T19:58:32.164Z,99353.66
2023-08-02T20:00:58.855Z,99368.91
2023-08-02T20:03:29.314Z,99373.06
2023-08-02T20:06:01.511Z,99375.16
2023-08-02T20:08:33.153Z,99356.13
2023-08-02T20:11:00.860Z,99365.34
2023-08-02T20:13:32.974Z,99360.56
2023-08-02T20:16:00.952Z,99348.41
2023-08-02T20:18:27.861Z,99349.63
2023-08-02T20:20:55.934Z,99337.13
2023-08-02T20:23:25.936Z,99343.38
2023-08-02T20:25:54.632Z,99326.75
2023-08-02T20:28:21.934Z,99328.19
2023-08-02T20:30:52.267Z,99322.13
2023-08-02T20:33:20.961Z,99325.75
2023-08-02T20:35:47.902Z,99316.94
2023-08-02T20:38:16.693Z,99314.72
2023-08-02T20:40:44.358Z,99310.22
2023-08-02T20:43:13.021Z,99302.78
2023-08-02T20:45:44.792Z,99297.59
2023-08-02T20:48:12.714Z,99299.53
2023-08-02T20:50:46.896Z,99303.03
2023-08-02T20:53:16.128Z,99300.38
2023-08-02T20:55:43.991Z,99300.50
2023-08-02T20:58:15.114Z,99305.94
2023-08-02T21:00:51.258Z,99298.41
2023-08-02T21:03:18.550Z,99302.84
2023-08-02T21:05:45.273Z,99306.63
2023-08-02T21:08:12.078Z,99313.34
2023-08-02T21:10:38.924Z,99324.66
2023-08-02T21:13:05.637Z,99329.97
2023-08-02T21:15:32.547Z,99316.88
2023-08-02T21:17:59.335Z,99303.00
2023-08-02T21:20:40.734Z,99289.00
2023-08-02T21:23:10.698Z,99279.47
2023-08-02T21:25:42.959Z,99266.16
2023-08-02T21:28:14.164Z,99262.38
2023-08-02T21:30:43.169Z,99254.94
2023-08-02T21:33:11.430Z,99262.44
2023-08-02T21:35:38.853Z,99278.38
2023-08-02T21:38:16.678Z,99285.94
2023-08-02T21:40:43.367Z,99307.50
2023-08-02T21:43:16.022Z,99314.47
2023-08-02T21:45:42.807Z,99299.75
2023-08-02T21:48:10.129Z,99310.81
2023-08-02T21:50:36.891Z,99313.97
2023-08-02T21:53:04.788Z,99311.69
2023-08-02T21:55:34.964Z,99319.41
2023-08-02T21:58:04.380Z,99323.19
2023-08-02T22:00:31.184Z,99329.31
2023-08-02T22:03:01.151Z,99321.47
2023-08-02T22:05:28.036Z,99312.63
2023-08-02T22:07:54.930Z,99309.31
2023-08-02T22:10:23.072Z,99301.75
2023-08-02T22:12:49.761Z,99302.09
2023-08-02T22:15:17.489Z,99289.09
2023-08-02T22:17:44.792Z,99313.19
2023-08-02T22:20:11.955Z,99319.41
2023-08-02T22:22:38.746Z,99317.88
2023-08-02T22:25:05.979Z,99324.00
2023-08-02T22:27:33.239Z,99341.50
2023-08-02T22:30:00.083Z,99331.72
2023-08-02T22:32:27.715Z,99359.72
2023-08-02T22:34:54.876Z,99357.41
2023-08-02T22:37:21.504Z,99331.72
2023-08-02T22:39:48.236Z,99349.47
2023-08-02T22:42:14.881Z,99358.81
2023-08-02T22:44:41.570Z,99344.41
2023-08-02T22:47:08.249Z,99348.84
2023-08-02T22:50:43.422Z,99366.34
2023-08-02T22:52:23.716Z,99382.41
2023-08-02T22:54:54.014Z,99388.41
2023-08-02T22:57:25.982Z,99387.31
2023-08-02T22:59:52.944Z,99406.34
2023-08-02T23:02:19.669Z,99424.31
2023-08-02T23:04:50.962Z,99425.00
2023-08-02T23:07:22.521Z,99440.88
2023-08-02T23:09:49.580Z,99424.75
2023-08-02T23:12:20.515Z,99451.94
2023-08-02T23:14:51.702Z,99453.19
2023-08-02T23:17:18.688Z,99465.22
2023-08-02T23:19:46.269Z,99477.28
2023-08-02T23:22:13.686Z,99479.38
2023-08-02T23:24:43.539Z,99467.88
2023-08-02T23:27:25.271Z,99482.28
2023-08-02T23:29:52.379Z,99492.78
2023-08-02T23:32:19.007Z,99489.91
2023-08-02T23:34:46.082Z,99497.88
2023-08-02T23:37:12.915Z,99515.84
2023-08-02T23:39:39.531Z,99526.97
2023-08-02T23:42:07.203Z,99530.69
2023-08-02T23:44:36.996Z,99529.47
2023-08-02T23:47:03.962Z,99523.22
2023-08-02T23:49:30.649Z,99510.56
2023-08-02T23:51:59.227Z,99515.00
2023-08-02T23:54:27.444Z,99502.25
2023-08-02T23:56:54.162Z,99507.44
2023-08-02T23:59:20.923Z,99501.03
